Time;durP1;ratioP1;P1;durP2;ratioP2;P2;SDS_P1;SDS_P2;PMS_P1;PMS_P2;Temp;Humidity;BMP_temperature;BMP_pressure;BME280_temperature;BME280_humidity;BME280_pressure;Samples;Min_cycle;Max_cycle;Signal;HPM_P1;HPM_P2
2022/11/12 00:00:26;;;;;;;18.10;10.97;;;;;;;9.17;89.16;102068.16;5033750;28;20396;-78
2022/11/12 00:02:51;;;;;;;15.97;10.50;;;;;;;9.18;89.03;102065.28;5017953;28;20403;-78
2022/11/12 00:05:16;;;;;;;16.03;9.90;;;;;;;9.21;88.72;102069.47;5010239;28;20947;-78
2022/11/12 00:07:42;;;;;;;22.70;10.13;;;;;;;9.13;88.79;102073.13;5010099;28;20466;-78
2022/11/12 00:10:07;;;;;;;28.77;10.57;;;;;;;9.07;89.09;102071.22;5002679;28;20441;-78
2022/11/12 00:12:33;;;;;;;17.33;10.20;;;;;;;9.08;89.50;102072.06;5001658;28;20500;-79
2022/11/12 00:14:58;;;;;;;20.85;13.45;;;;;;;9.08;89.38;102069.34;5011664;28;20421;-78
2022/11/12 00:17:23;;;;;;;23.30;12.50;;;;;;;9.11;89.08;102074.38;5015215;28;20495;-78
2022/11/12 00:19:49;;;;;;;23.20;10.60;;;;;;;9.10;89.28;102073.53;5014109;28;20458;-78
2022/11/12 00:22:14;;;;;;;14.73;8.87;;;;;;;9.04;89.32;102076.19;5014338;28;20413;-78
2022/11/12 00:24:42;;;;;;;20.37;14.27;;;;;;;9.01;90.02;102071.16;5001558;28;20529;-78
2022/11/12 00:27:07;;;;;;;15.57;11.98;;;;;;;9.00;90.18;102064.91;5003636;28;20401;-78
2022/11/12 00:29:33;;;;;;;14.83;10.20;;;;;;;9.00;89.65;102067.63;5009855;28;20887;-78
2022/11/12 00:31:58;;;;;;;14.53;9.63;;;;;;;9.05;89.46;102059.78;5004148;28;20406;-78
2022/11/12 00:34:23;;;;;;;18.37;10.23;;;;;;;9.08;89.65;102061.25;5009428;28;20487;-78
2022/11/12 00:36:49;;;;;;;16.73;10.30;;;;;;;9.07;89.89;102057.69;5043923;28;20430;-78
2022/11/12 00:39:14;;;;;;;15.47;9.10;;;;;;;9.08;89.59;102055.84;5010402;28;20531;-78
2022/11/12 00:41:39;;;;;;;19.13;10.93;;;;;;;9.07;89.46;102057.69;5016413;28;20875;-78
2022/11/12 00:44:05;;;;;;;12.90;9.33;;;;;;;9.08;89.93;102059.38;5005810;28;20785;-78
2022/11/12 00:46:30;;;;;;;17.27;8.73;;;;;;;9.10;89.61;102054.59;5048564;28;20407;-78
2022/11/12 00:48:55;;;;;;;23.07;9.20;;;;;;;9.08;89.56;102056.66;5004803;28;20418;-78
2022/11/12 00:51:21;;;;;;;14.07;8.77;;;;;;;9.10;89.59;102056.47;5015771;28;20422;-78
2022/11/12 00:53:48;;;;;;;29.42;9.20;;;;;;;9.07;89.53;102057.69;5003041;28;20414;-78
2022/11/12 00:56:14;;;;;;;12.48;8.10;;;;;;;9.09;89.22;102057.50;5019987;28;20414;-79
2022/11/12 00:58:39;;;;;;;12.70;8.20;;;;;;;9.12;89.89;102062.53;5005880;28;20403;-78
2022/11/12 01:01:10;;;;;;;15.13;8.37;;;;;;;9.13;89.43;102053.34;5005519;28;20397;-78
2022/11/12 01:03:37;;;;;;;21.05;8.88;;;;;;;9.12;89.25;102057.13;4999773;28;20410;-78
2022/11/12 01:06:05;;;;;;;19.65;8.55;;;;;;;9.14;89.44;102046.94;5006676;28;20426;-78
2022/11/12 01:08:30;;;;;;;14.90;8.05;;;;;;;9.18;89.31;102046.34;5008503;28;20415;-78
2022/11/12 01:10:56;;;;;;;10.70;7.90;;;;;;;9.20;89.09;102044.28;5009211;28;20771;-78
2022/11/12 01:13:21;;;;;;;10.10;7.80;;;;;;;9.24;88.81;102052.81;5012118;28;20420;-78
2022/11/12 01:15:46;;;;;;;13.83;8.50;;;;;;;9.23;89.00;102049.28;5005003;28;20455;-78
2022/11/12 01:18:12;;;;;;;10.50;7.57;;;;;;;9.26;88.91;102059.69;5015014;28;20415;-78
2022/11/12 01:20:38;;;;;;;9.93;7.70;;;;;;;9.26;89.02;102053.44;5000246;28;20414;-78
2022/11/12 01:23:04;;;;;;;10.80;7.78;;;;;;;9.29;88.84;102056.59;5005959;28;20532;-78
2022/11/12 01:25:29;;;;;;;10.27;7.65;;;;;;;9.29;88.43;102059.31;4999012;28;20952;-78
2022/11/12 01:27:55;;;;;;;9.93;6.53;;;;;;;9.30;88.57;102062.84;5001769;28;20490;-78
2022/11/12 01:30:20;;;;;;;8.63;6.57;;;;;;;9.32;88.72;102058.06;5007030;28;20420;-78
2022/11/12 01:32:45;;;;;;;11.20;7.10;;;;;;;9.26;88.64;102057.00;5013868;28;20407;-78
2022/11/12 01:35:11;;;;;;;8.77;6.87;;;;;;;9.25;88.69;102052.63;5001065;28;20414;-79
2022/11/12 01:37:36;;;;;;;14.68;7.38;;;;;;;9.26;88.79;102053.44;5011107;28;20413;-78
2022/11/12 01:40:02;;;;;;;10.17;6.70;;;;;;;9.23;88.77;102049.28;5014617;28;20497;-78
2022/11/12 01:42:30;;;;;;;8.15;6.75;;;;;;;9.22;88.95;102038.69;5012844;28;20420;-78
2022/11/12 01:44:55;;;;;;;10.85;6.32;;;;;;;9.04;89.46;102041.88;5000499;28;20504;-78
2022/11/12 01:47:32;;;;;;;10.60;7.07;;;;;;;8.98;89.62;102039.94;5012746;28;20830;-78
2022/11/12 01:50:13;;;;;;;10.83;6.93;;;;;;;9.00;89.92;102040.56;5011878;28;20507;-78
2022/11/12 01:52:47;;;;;;;12.60;7.00;;;;;;;9.09;89.55;102030.47;4999214;28;20676;-78
2022/11/12 01:55:20;;;;;;;10.68;6.65;;;;;;;9.08;89.38;102031.50;4998780;28;20397;-78
2022/11/12 01:57:59;;;;;;;8.38;6.50;;;;;;;9.07;89.48;102036.06;5034332;28;20407;-78
2022/11/12 02:00:24;;;;;;;14.00;7.45;;;;;;;9.00;89.43;102035.16;5005458;28;20504;-78
2022/11/12 02:02:57;;;;;;;17.77;7.80;;;;;;;8.91;89.60;102035.50;5002178;28;20506;-78
2022/11/12 02:05:25;;;;;;;11.27;7.68;;;;;;;8.91;89.89;102022.84;5029334;28;20441;-78
2022/11/12 02:07:51;;;;;;;7.50;6.57;;;;;;;8.92;89.71;102018.25;5011166;28;20408;-78
2022/11/12 02:10:18;;;;;;;6.87;5.93;;;;;;;8.96;89.85;102022.25;5011633;28;20430;-78
2022/11/12 02:15:28;;;;;;;8.73;6.90;;;;;;;9.00;89.51;102018.09;5015855;28;20394;-78
2022/11/12 02:17:53;;;;;;;10.80;6.87;;;;;;;9.00;89.62;102015.41;5011901;28;20396;-78
2022/11/12 02:20:18;;;;;;;14.40;6.10;;;;;;;9.01;89.43;102022.50;5006612;28;20408;-78
2022/11/12 02:22:44;;;;;;;9.23;6.13;;;;;;;9.02;89.50;102022.31;5014502;28;20503;-78
2022/11/12 02:25:18;;;;;;;10.33;6.60;;;;;;;8.98;89.70;102015.63;5004948;28;20409;-78
2022/11/12 02:27:44;;;;;;;11.82;7.15;;;;;;;9.09;89.56;102019.66;4993927;28;20438;-78
2022/11/12 02:30:10;;;;;;;9.35;6.75;;;;;;;9.11;89.32;102022.97;5003168;28;20462;-78
2022/11/12 02:32:36;;;;;;;12.02;6.78;;;;;;;9.05;89.45;102015.66;5005328;28;20402;-78
2022/11/12 02:35:01;;;;;;;9.97;6.87;;;;;;;9.02;89.35;102014.19;5003568;28;20491;-78
2022/11/12 02:37:26;;;;;;;8.23;6.88;;;;;;;9.05;89.52;102012.97;5026035;28;20432;-78
2022/11/12 02:39:51;;;;;;;8.13;6.73;;;;;;;9.07;89.68;102016.28;5016846;28;20465;-78
2022/11/12 02:42:17;;;;;;;9.32;6.82;;;;;;;9.07;89.66;102016.28;5011001;28;20421;-78
2022/11/12 02:44:42;;;;;;;8.57;6.47;;;;;;;9.04;89.30;102011.28;5012524;28;20410;-78
2022/11/12 02:47:08;;;;;;;7.03;5.88;;;;;;;9.03;89.83;102015.84;5007225;28;20422;-78
2022/11/12 02:49:33;;;;;;;8.10;5.50;;;;;;;9.03;89.52;102015.00;5022011;28;20408;-78
2022/11/12 02:51:58;;;;;;;6.27;5.67;;;;;;;8.94;89.24;102011.63;5014630;28;20780;-78
2022/11/12 02:54:23;;;;;;;11.73;5.50;;;;;;;8.93;89.62;102014.50;5015879;28;20436;-78
2022/11/12 02:56:49;;;;;;;7.33;5.20;;;;;;;8.97;89.73;102016.63;5007231;28;20875;-78
2022/11/12 02:59:14;;;;;;;6.60;4.83;;;;;;;8.95;89.68;102018.72;5006191;28;20408;-78
2022/11/12 03:01:39;;;;;;;5.80;4.80;;;;;;;8.95;89.79;102007.91;5009288;28;20401;-78
2022/11/12 03:04:04;;;;;;;7.13;4.80;;;;;;;8.93;89.66;102009.94;5013811;28;20406;-78
2022/11/12 03:06:30;;;;;;;8.13;5.17;;;;;;;8.94;89.84;102008.06;5005047;28;20408;-78
2022/11/12 03:08:55;;;;;;;5.78;5.13;;;;;;;8.98;89.48;102012.06;5013376;28;20416;-78
2022/11/12 03:11:20;;;;;;;7.03;5.37;;;;;;;9.01;89.49;102017.09;5011773;28;20476;-78
2022/11/12 03:13:45;;;;;;;8.05;5.55;;;;;;;9.00;89.21;102012.69;5007709;28;20485;-78
2022/11/12 03:16:11;;;;;;;7.70;5.50;;;;;;;8.98;89.93;102020.19;5018592;28;20398;-78
2022/11/12 03:18:36;;;;;;;11.40;6.13;;;;;;;8.97;89.45;102015.78;5008163;28;20482;-78
2022/11/12 03:21:03;;;;;;;6.73;5.70;;;;;;;8.97;89.31;102019.34;5010587;28;20405;-78
2022/11/12 03:23:28;;;;;;;5.73;5.10;;;;;;;8.99;89.69;102022.66;5013598;28;20405;-78
2022/11/12 03:25:54;;;;;;;6.63;5.57;;;;;;;8.97;89.47;102016.63;5021269;28;20452;-78
2022/11/12 03:28:19;;;;;;;6.00;5.40;;;;;;;8.99;89.73;102017.25;5006184;28;20552;-79
2022/11/12 03:30:45;;;;;;;5.77;4.93;;;;;;;9.00;89.46;102021.66;5003877;28;20463;-78
2022/11/12 03:33:13;;;;;;;5.73;4.83;;;;;;;8.96;89.27;102023.06;5005025;28;20402;-78
2022/11/12 03:35:39;;;;;;;6.88;4.85;;;;;;;8.97;89.43;102013.94;5012054;28;20494;-78
2022/11/12 03:38:05;;;;;;;5.93;5.07;;;;;;;8.99;89.48;102014.56;5014074;28;21014;-78
2022/11/12 03:40:31;;;;;;;5.88;4.88;;;;;;;9.02;89.17;102016.91;5005089;28;20486;-78
2022/11/12 03:42:57;;;;;;;6.20;4.68;;;;;;;9.03;89.53;102013.13;5008831;28;20496;-78
2022/11/12 03:45:24;;;;;;;5.50;4.75;;;;;;;9.05;89.19;102018.38;5010701;28;20545;-78
2022/11/12 03:47:52;;;;;;;6.70;5.70;;;;;;;9.05;89.30;102018.38;5007296;28;20410;-78
2022/11/12 03:50:20;;;;;;;7.10;5.73;;;;;;;9.04;88.99;102019.38;5043050;28;20424;-78
2022/11/12 03:52:51;;;;;;;8.83;5.40;;;;;;;9.01;89.14;102022.50;5015104;28;20783;-78
2022/11/12 03:55:19;;;;;;;7.03;5.50;;;;;;;8.99;89.70;102019.97;5013054;28;20402;-78
2022/11/12 03:57:44;;;;;;;6.18;5.40;;;;;;;9.00;89.36;102018.94;5010042;28;20407;-78
2022/11/12 04:00:11;;;;;;;6.30;5.67;;;;;;;9.02;89.52;102018.75;5019091;28;20410;-78
2022/11/12 04:02:36;;;;;;;8.35;5.65;;;;;;;9.00;89.55;102021.66;5005049;28;20412;-78
2022/11/12 04:10:45;;;;;;;7.20;5.25;;;;;;;9.01;89.25;102009.81;5003806;28;20817;-78
2022/11/12 04:13:26;;;;;;;8.20;5.88;;;;;;;8.99;89.43;102009.16;5013541;28;20411;-78
2022/11/12 04:21:49;;;;;;;6.95;5.95;;;;;;;9.00;89.43;102007.28;5009178;28;20402;-78
2022/11/12 04:21:51;;;;;;;6.50;4.90;;;;;;;8.94;89.64;102008.06;5008544;28;20413;-77
2022/11/12 04:27:14;;;;;;;6.95;5.75;;;;;;;8.93;89.27;102006.41;5001212;28;20400;-78
2022/11/12 04:32:24;;;;;;;6.38;5.32;;;;;;;8.93;89.20;102006.41;5007511;28;20397;-78
2022/11/12 04:34:50;;;;;;;6.72;5.20;;;;;;;8.93;89.15;102003.69;4997780;28;20411;-78
2022/11/12 04:37:16;;;;;;;8.55;5.10;;;;;;;8.95;89.41;102001.66;5005998;28;20416;-78
2022/11/12 04:39:41;;;;;;;6.20;5.20;;;;;;;8.97;89.17;102005.81;5017193;28;20411;-78
2022/11/12 04:44:58;;;;;;;7.10;5.97;;;;;;;9.02;88.92;101999.84;5010050;28;20543;-78
2022/11/12 04:47:23;;;;;;;6.53;5.88;;;;;;;8.97;89.10;101996.88;5008870;28;20417;-78
2022/11/12 04:49:49;;;;;;;7.22;5.60;;;;;;;8.98;89.10;102002.09;5004238;28;20412;-78
2022/11/12 04:52:15;;;;;;;5.80;5.20;;;;;;;8.96;88.87;102001.44;5008890;28;20406;-78
2022/11/12 04:54:40;;;;;;;7.20;5.97;;;;;;;8.97;88.77;102008.53;5042962;28;20414;-78
2022/11/12 04:57:05;;;;;;;5.67;5.17;;;;;;;9.01;88.69;102007.09;5007637;28;20462;-78
2022/11/12 04:59:31;;;;;;;9.07;5.53;;;;;;;8.99;89.26;102006.44;4999993;28;20424;-78
2022/11/12 05:01:56;;;;;;;7.43;5.20;;;;;;;8.98;89.27;102004.78;4992890;28;20852;-78
2022/11/12 05:04:21;;;;;;;9.05;5.30;;;;;;;8.98;89.08;102003.97;4999093;28;20398;-78
2022/11/12 05:06:53;;;;;;;6.20;5.47;;;;;;;8.95;89.16;102002.50;5014305;28;20433;-78
2022/11/12 05:09:24;;;;;;;8.48;5.13;;;;;;;8.99;88.69;102003.75;5013806;28;20978;-78
2022/11/12 05:11:50;;;;;;;7.40;6.13;;;;;;;9.04;88.38;102001.31;5026278;28;20397;-78
2022/11/12 05:14:16;;;;;;;6.15;5.10;;;;;;;9.04;88.33;102003.16;4996634;28;20405;-78
2022/11/12 05:16:42;;;;;;;7.10;5.00;;;;;;;9.01;88.53;101999.00;4995031;28;20960;-78
2022/11/12 05:19:07;;;;;;;8.13;5.32;;;;;;;9.00;88.71;102004.59;5020755;28;20401;-78
2022/11/12 05:24:16;;;;;;;9.48;5.47;;;;;;;8.98;88.80;101995.84;5023623;28;20407;-78
2022/11/12 05:26:41;;;;;;;5.53;4.95;;;;;;;8.92;88.71;101989.38;5005244;28;20407;-78
2022/11/12 05:29:06;;;;;;;7.77;6.53;;;;;;;8.91;88.88;101990.38;5016845;28;20803;-79
2022/11/12 05:31:32;;;;;;;8.20;5.57;;;;;;;8.92;88.31;101994.78;5024370;28;20396;-78
2022/11/12 05:33:58;;;;;;;8.00;5.63;;;;;;;8.90;88.67;101986.00;5007672;28;20406;-78
2022/11/12 05:36:23;;;;;;;5.70;5.10;;;;;;;8.94;88.73;101989.16;5023536;28;20404;-78
2022/11/12 05:38:48;;;;;;;8.90;5.33;;;;;;;8.94;88.40;101997.25;5021025;28;20761;-78
2022/11/12 05:41:14;;;;;;;7.30;5.97;;;;;;;8.97;88.54;101999.56;5015259;28;20945;-78
2022/11/12 05:43:39;;;;;;;16.23;9.57;;;;;;;8.99;88.38;102005.63;5028183;28;20493;-78
2022/11/12 05:46:04;;;;;;;15.07;8.60;;;;;;;8.98;88.49;102012.06;5012632;28;20493;-78
2022/11/12 05:48:30;;;;;;;9.17;6.97;;;;;;;8.97;88.29;102003.13;5052580;28;20417;-78
2022/11/12 05:50:55;;;;;;;9.30;5.80;;;;;;;8.93;88.45;101998.28;5035276;28;20432;-78
2022/11/12 05:53:21;;;;;;;7.20;5.73;;;;;;;8.90;88.82;102004.94;5027493;28;20395;-78
2022/11/12 05:55:46;;;;;;;7.00;5.97;;;;;;;8.92;88.48;102002.03;5015698;28;20406;-78
2022/11/12 05:58:11;;;;;;;6.80;5.87;;;;;;;8.91;88.35;102006.63;5007798;28;20447;-78
2022/11/12 06:00:39;;;;;;;7.65;6.35;;;;;;;8.92;88.26;102007.44;5018655;28;20819;-78
2022/11/12 06:03:09;;;;;;;14.52;6.82;;;;;;;8.93;88.34;102011.81;5005828;28;20425;-78
2022/11/12 06:05:34;;;;;;;6.93;6.18;;;;;;;8.90;88.32;102012.19;5049065;28;20398;-76
2022/11/12 06:08:00;;;;;;;8.73;6.27;;;;;;;8.91;88.44;102022.00;5030038;28;20404;-77
2022/11/12 06:10:25;;;;;;;8.63;5.30;;;;;;;8.93;88.48;102020.75;5027060;28;20442;-78
2022/11/12 06:12:51;;;;;;;7.05;6.30;;;;;;;8.93;87.94;102019.91;5030305;28;20400;-78
2022/11/12 06:15:17;;;;;;;6.22;5.57;;;;;;;8.92;88.47;102023.66;5024293;28;20408;-78
2022/11/12 06:17:42;;;;;;;7.10;6.10;;;;;;;8.91;87.94;102016.59;5025937;28;20387;-78
2022/11/12 06:20:08;;;;;;;6.40;5.47;;;;;;;8.93;88.21;102018.06;5027158;28;21021;-78
2022/11/12 06:22:34;;;;;;;6.70;5.60;;;;;;;8.94;87.99;102019.72;5026744;28;20396;-78
2022/11/12 06:24:59;;;;;;;6.07;5.23;;;;;;;8.90;87.65;102023.84;5034719;28;20391;-78
2022/11/12 06:27:24;;;;;;;6.67;5.60;;;;;;;8.92;87.77;102027.22;5019459;28;20402;-78
2022/11/12 06:29:50;;;;;;;6.33;5.30;;;;;;;8.90;88.27;102029.25;5017431;28;20721;-80
2022/11/12 06:32:15;;;;;;;6.37;5.63;;;;;;;8.91;87.97;102036.34;5022007;28;20410;-80
2022/11/12 06:34:40;;;;;;;6.70;5.93;;;;;;;8.94;87.71;102035.13;5034505;28;20399;-79
2022/11/12 06:37:06;;;;;;;7.20;6.20;;;;;;;8.97;87.71;102032.03;5030349;28;20433;-79
2022/11/12 06:39:31;;;;;;;8.43;6.87;;;;;;;8.97;87.50;102037.44;5026092;28;20391;-79
2022/11/12 06:41:56;;;;;;;8.13;6.10;;;;;;;8.99;87.71;102047.00;5031309;28;20392;-80
2022/11/12 06:44:22;;;;;;;7.60;6.23;;;;;;;8.94;87.37;102040.53;5033414;28;20807;-80
2022/11/12 06:46:47;;;;;;;7.53;6.30;;;;;;;8.94;87.46;102040.53;5033741;28;20399;-78
2022/11/12 06:49:12;;;;;;;7.57;6.03;;;;;;;8.89;87.74;102046.53;5016701;28;20517;-79
2022/11/12 06:51:38;;;;;;;8.00;6.13;;;;;;;8.88;87.22;102047.56;5013225;28;20420;-79
2022/11/12 06:54:04;;;;;;;6.97;5.88;;;;;;;8.85;87.22;102051.50;5026823;28;20802;-79
2022/11/12 06:56:31;;;;;;;7.57;5.78;;;;;;;8.91;87.34;102049.03;5021203;28;21352;-79
2022/11/12 06:58:57;;;;;;;7.60;6.20;;;;;;;8.91;87.22;102052.56;5016306;28;20492;-79
2022/11/12 07:01:23;;;;;;;6.65;5.97;;;;;;;8.93;87.28;102052.38;5019041;28;20396;-79
2022/11/12 07:03:50;;;;;;;7.17;5.40;;;;;;;8.93;87.06;102049.66;5017073;28;20461;-78
2022/11/12 07:06:19;;;;;;;6.18;5.57;;;;;;;8.92;87.47;102048.84;5016289;28;20407;-79
2022/11/12 07:08:48;;;;;;;6.45;5.70;;;;;;;8.94;87.29;102044.06;5011922;28;20496;-79
2022/11/12 07:11:14;;;;;;;11.18;5.85;;;;;;;8.95;87.24;102043.03;5010113;28;20519;-79
2022/11/12 07:13:40;;;;;;;7.25;5.90;;;;;;;8.93;86.79;102042.38;5015150;28;20785;-79
2022/11/12 07:16:07;;;;;;;7.87;6.43;;;;;;;8.93;87.13;102050.50;5002436;28;20407;-79
2022/11/12 07:18:34;;;;;;;6.63;5.70;;;;;;;8.91;86.82;102044.47;5014540;28;20414;-78
2022/11/12 07:21:01;;;;;;;7.50;5.90;;;;;;;8.91;87.12;102041.75;5014240;28;20407;-78
2022/11/12 07:23:27;;;;;;;7.85;6.07;;;;;;;8.91;87.02;102039.06;5020020;28;20389;-78
2022/11/12 07:26:00;;;;;;;9.25;6.18;;;;;;;8.93;87.05;102039.69;5000139;28;20805;-77
2022/11/12 07:28:26;;;;;;;6.43;5.82;;;;;;;8.90;87.08;102037.38;5009515;28;20402;-80
2022/11/12 07:30:58;;;;;;;6.90;6.20;;;;;;;8.92;87.09;102038.03;4997213;28;20428;-78
2022/11/12 07:33:25;;;;;;;7.70;6.03;;;;;;;8.92;86.97;102040.75;4999949;28;20545;-79
2022/11/12 07:35:58;;;;;;;7.75;5.78;;;;;;;8.93;86.76;102028.88;4999029;28;20414;-80
2022/11/12 07:38:23;;;;;;;7.60;6.07;;;;;;;8.90;87.13;102028.41;4998415;28;20411;-79
2022/11/12 07:40:49;;;;;;;7.20;6.47;;;;;;;8.84;87.17;102019.22;5006200;28;20465;-78
2022/11/12 07:43:14;;;;;;;9.57;6.80;;;;;;;8.84;87.16;102024.63;4998038;28;20921;-78
2022/11/12 07:45:39;;;;;;;9.48;7.53;;;;;;;8.85;87.22;102023.63;4999147;28;20419;-78
2022/11/12 07:48:05;;;;;;;8.60;6.83;;;;;;;8.90;87.22;102025.72;5032417;28;20466;-78
2022/11/12 07:50:30;;;;;;;8.88;6.90;;;;;;;8.93;86.74;102028.88;5017263;28;20423;-78
2022/11/12 07:52:58;;;;;;;15.13;8.77;;;;;;;8.94;86.85;102024.31;4997928;28;20450;-79
2022/11/12 07:55:23;;;;;;;16.33;9.65;;;;;;;8.98;86.89;102025.59;4997324;28;20449;-78
2022/11/12 07:57:48;;;;;;;18.17;10.23;;;;;;;9.03;86.30;102021.25;5014634;28;20449;-78
2022/11/12 08:00:14;;;;;;;21.67;12.00;;;;;;;9.07;86.72;102022.53;5013764;28;20407;-78
2022/11/12 08:02:39;;;;;;;12.45;8.63;;;;;;;9.08;86.59;102026.09;4997981;28;20438;-78
2022/11/12 08:05:05;;;;;;;7.57;6.87;;;;;;;9.06;86.16;102026.25;4997291;28;20497;-78
2022/11/12 08:07:30;;;;;;;6.57;6.03;;;;;;;9.09;86.11;102025.06;5001013;28;20435;-78
2022/11/12 08:09:56;;;;;;;6.77;6.07;;;;;;;9.00;86.34;102018.09;4996118;28;20418;-78
2022/11/12 08:12:21;;;;;;;7.67;6.87;;;;;;;9.01;86.67;102023.34;5012043;28;20402;-78
2022/11/12 08:14:46;;;;;;;8.10;7.30;;;;;;;9.04;86.47;102028.34;4998160;28;20410;-78
2022/11/12 08:17:12;;;;;;;8.07;7.23;;;;;;;9.09;86.27;102042.09;4996684;28;20506;-78
2022/11/12 08:19:37;;;;;;;8.03;6.23;;;;;;;9.08;86.66;102045.00;4996526;28;20414;-78
2022/11/12 08:22:02;;;;;;;10.67;7.27;;;;;;;9.06;86.73;102038.94;4998035;28;20838;-78
2022/11/12 08:24:27;;;;;;;11.03;8.50;;;;;;;9.06;86.71;102052.47;5009495;28;20408;-78
2022/11/12 08:26:53;;;;;;;9.53;8.40;;;;;;;9.07;86.27;102035.22;5016544;28;20397;-78
2022/11/12 08:29:19;;;;;;;11.97;9.00;;;;;;;9.07;86.35;102037.91;5016192;28;20406;-78
2022/11/12 08:31:45;;;;;;;10.73;9.52;;;;;;;9.10;86.30;102048.34;5015132;28;20429;-78
2022/11/12 08:34:13;;;;;;;8.45;7.50;;;;;;;9.13;86.13;102053.34;5015939;28;20763;-78
2022/11/12 08:36:41;;;;;;;7.47;6.47;;;;;;;9.04;86.21;102039.16;5005517;28;20442;-78
2022/11/12 08:39:07;;;;;;;7.13;6.43;;;;;;;9.02;86.32;102033.13;5017888;28;20470;-79
2022/11/12 08:41:33;;;;;;;8.73;7.27;;;;;;;9.06;86.30;102036.25;5014906;28;20909;-79
2022/11/12 08:43:58;;;;;;;10.60;8.77;;;;;;;9.08;86.19;102043.16;5002080;28;20878;-78
2022/11/12 08:46:23;;;;;;;12.10;9.23;;;;;;;9.11;85.77;102040.06;5013887;28;20890;-79
2022/11/12 08:48:49;;;;;;;11.82;9.15;;;;;;;9.11;85.62;102056.28;5009399;28;20416;-79
2022/11/12 08:51:14;;;;;;;11.57;8.60;;;;;;;9.09;85.80;102050.22;5015818;28;20399;-77
2022/11/12 08:53:39;;;;;;;9.90;8.25;;;;;;;9.09;85.39;102044.00;5009753;28;20422;-78
2022/11/12 08:56:05;;;;;;;9.00;7.80;;;;;;;9.13;85.64;102045.25;5017949;28;20410;-78
2022/11/12 08:58:30;;;;;;;12.63;8.80;;;;;;;9.15;85.55;102046.75;5004477;28;20414;-79
2022/11/12 09:01:02;;;;;;;10.07;7.70;;;;;;;9.20;85.59;102054.25;5013607;28;20414;-78
2022/11/12 09:03:27;;;;;;;9.57;7.15;;;;;;;9.17;85.37;102060.91;5013053;28;20395;-79
2022/11/12 09:05:53;;;;;;;10.52;7.72;;;;;;;9.05;85.82;102053.53;5012771;28;20559;-78
2022/11/12 09:08:21;;;;;;;9.52;7.82;;;;;;;8.95;85.87;102053.88;5021454;28;20397;-78
2022/11/12 09:10:48;;;;;;;10.27;9.18;;;;;;;8.99;85.66;102047.00;5028597;28;20418;-78
2022/11/12 09:13:14;;;;;;;10.32;8.77;;;;;;;9.04;85.55;102051.84;5004558;28;20741;-78
2022/11/12 09:15:39;;;;;;;13.48;9.43;;;;;;;9.09;85.44;102057.50;5015848;28;20428;-78
2022/11/12 09:18:10;;;;;;;15.57;12.60;;;;;;;9.11;85.56;102056.28;5016041;28;20397;-78
2022/11/12 09:20:35;;;;;;;17.20;11.95;;;;;;;9.16;85.65;102053.81;5012393;28;20411;-79
2022/11/12 09:23:09;;;;;;;14.30;11.73;;;;;;;9.18;85.49;102051.75;5006697;28;20406;-78
2022/11/12 09:25:35;;;;;;;14.73;11.18;;;;;;;9.21;85.20;102058.63;5002119;28;20409;-77
2022/11/12 09:28:15;;;;;;;16.90;12.45;;;;;;;9.22;85.22;102052.19;4995814;28;20408;-79
2022/11/12 09:30:46;;;;;;;16.02;12.45;;;;;;;9.21;85.13;102053.22;5012762;28;20445;-80
2022/11/12 09:33:34;;;;;;;18.88;12.82;;;;;;;9.21;85.41;102056.78;5007488;28;20430;-78
2022/11/12 09:36:00;;;;;;;17.15;12.40;;;;;;;9.19;85.34;102063.38;5006673;28;20408;-79
2022/11/12 09:38:26;;;;;;;18.08;13.48;;;;;;;9.20;85.36;102062.38;5011284;28;20968;-78
2022/11/12 09:40:51;;;;;;;17.90;12.47;;;;;;;9.22;85.28;102054.91;5016709;28;20472;-79
2022/11/12 09:43:22;;;;;;;21.80;13.80;;;;;;;9.24;85.24;102059.06;5017295;28;20417;-79
2022/11/12 09:45:49;;;;;;;18.73;12.63;;;;;;;9.26;85.37;102056.16;5006121;28;20427;-79
2022/11/12 09:48:21;;;;;;;18.33;13.60;;;;;;;9.24;85.07;102063.66;5016006;28;20769;-79
2022/11/12 09:50:59;;;;;;;22.10;13.75;;;;;;;9.17;85.32;102062.75;5018134;28;20413;-79
2022/11/12 09:53:34;;;;;;;21.17;14.18;;;;;;;9.20;85.78;102067.78;5007556;28;20876;-79
2022/11/12 09:56:05;;;;;;;22.08;14.63;;;;;;;9.23;85.34;102072.78;5027123;28;20401;-80
2022/11/12 09:58:30;;;;;;;20.23;14.20;;;;;;;9.26;85.56;102066.97;5008978;28;20405;-79
2022/11/12 10:01:01;;;;;;;20.73;14.90;;;;;;;9.28;85.23;102064.94;5008357;28;20423;-79
2022/11/12 10:03:39;;;;;;;23.77;16.77;;;;;;;9.29;85.44;102074.69;5017829;28;20752;-78
2022/11/12 10:06:11;;;;;;;23.08;16.00;;;;;;;9.30;85.51;102077.22;5005047;28;20401;-77
2022/11/12 10:08:40;;;;;;;20.58;15.02;;;;;;;9.30;85.63;102065.56;5016000;28;20923;-78
2022/11/12 10:14:51;;;;;;;19.15;14.38;;;;;;;9.34;85.73;102053.31;5007625;28;20409;-77
2022/11/12 10:17:46;;;;;;;24.55;15.52;;;;;;;9.28;85.73;102049.53;5022631;28;20418;-79
2022/11/12 10:20:28;;;;;;;23.05;16.13;;;;;;;9.25;85.66;102052.63;5006236;28;20383;-78
2022/11/12 10:23:10;;;;;;;31.50;19.55;;;;;;;9.25;85.89;102046.41;5005324;28;20971;-77
2022/11/12 10:25:47;;;;;;;26.13;16.38;;;;;;;9.21;85.94;102043.25;5008157;28;20497;-78
2022/11/12 10:28:28;;;;;;;25.38;16.67;;;;;;;9.24;86.10;102037.44;5014642;28;20427;-76
2022/11/12 10:31:00;;;;;;;21.15;15.88;;;;;;;9.28;85.81;102043.28;5001778;28;20417;-76
2022/11/12 10:33:29;;;;;;;24.77;17.55;;;;;;;9.28;85.82;102037.88;5051017;28;20456;-76
2022/11/12 10:36:04;;;;;;;20.63;15.15;;;;;;;9.28;85.79;102041.44;5015996;28;20407;-76
2022/11/12 10:38:31;;;;;;;22.88;14.95;;;;;;;9.27;86.16;102028.91;5006919;28;20477;-76
2022/11/12 10:40:57;;;;;;;19.52;14.18;;;;;;;9.33;85.78;102038.09;5015000;28;20421;-76
2022/11/12 10:43:23;;;;;;;20.10;15.10;;;;;;;9.37;85.86;102024.00;5017507;28;20845;-76
2022/11/12 10:45:49;;;;;;;21.52;15.27;;;;;;;9.43;85.64;102037.75;5008950;28;20420;-76
2022/11/12 10:48:30;;;;;;;17.73;13.88;;;;;;;9.48;85.29;102032.59;5011933;28;20414;-76
2022/11/12 10:50:56;;;;;;;21.40;14.63;;;;;;;9.50;85.26;102033.22;5014885;28;20908;-76
2022/11/12 10:53:51;;;;;;;21.60;15.20;;;;;;;9.44;85.47;102034.84;5025845;28;20410;-76
2022/11/12 10:56:24;;;;;;;19.65;14.50;;;;;;;9.48;85.44;102030.72;5001365;28;20426;-79
2022/11/12 10:59:14;;;;;;;19.23;14.57;;;;;;;9.50;85.40;102036.75;5015125;28;20514;-76
2022/11/12 11:01:41;;;;;;;24.58;16.25;;;;;;;9.50;85.03;102028.66;5008911;28;20508;-79
2022/11/12 11:04:24;;;;;;;23.38;16.35;;;;;;;9.54;85.00;102021.81;4998402;28;20837;-77
2022/11/12 11:07:15;;;;;;;26.10;16.48;;;;;;;9.55;84.98;102022.63;5025023;28;20407;-77
2022/11/12 11:09:59;;;;;;;22.73;15.13;;;;;;;9.58;85.36;102014.94;5005078;28;20519;-76
2022/11/12 11:12:32;;;;;;;22.13;15.95;;;;;;;9.59;85.16;102003.06;5006645;28;20421;-77
2022/11/12 11:15:10;;;;;;;22.37;15.83;;;;;;;9.61;85.11;102008.31;5015970;28;20441;-77
2022/11/12 11:17:36;;;;;;;20.42;14.52;;;;;;;9.57;85.32;102005.16;5011424;28;20962;-76
2022/11/12 11:20:12;;;;;;;19.60;13.70;;;;;;;9.57;85.16;101996.19;5004957;28;20582;-76
2022/11/12 11:22:44;;;;;;;23.42;14.65;;;;;;;9.57;85.16;102005.16;5009966;28;20414;-76
2022/11/12 11:25:26;;;;;;;22.23;14.90;;;;;;;9.57;85.10;101999.75;5004688;28;20393;-76
2022/11/12 11:28:00;;;;;;;21.63;14.75;;;;;;;9.61;85.04;102008.31;5013522;28;20474;-77
2022/11/12 11:30:25;;;;;;;18.92;15.52;;;;;;;9.60;84.86;102004.75;5019208;28;20769;-76
2022/11/12 11:32:56;;;;;;;19.95;14.35;;;;;;;9.61;85.12;102001.03;5007513;28;20400;-77
2022/11/12 11:35:53;;;;;;;21.88;15.88;;;;;;;9.62;84.94;101994.56;5013315;28;20416;-77
2022/11/12 11:38:18;;;;;;;18.85;12.98;;;;;;;9.62;84.87;101991.00;5011176;28;20407;-77
2022/11/12 11:41:21;;;;;;;20.50;13.77;;;;;;;9.64;85.22;101986.25;5007536;28;20419;-77
2022/11/12 11:44:02;;;;;;;18.70;14.02;;;;;;;9.64;85.06;101994.38;5021427;28;20411;-77
2022/11/12 11:46:43;;;;;;;19.73;14.50;;;;;;;9.62;85.00;101980.19;5007230;28;20492;-76
2022/11/12 11:49:38;;;;;;;24.27;16.38;;;;;;;9.66;84.95;101989.56;5007614;28;20912;-79
2022/11/12 11:52:22;;;;;;;18.35;13.00;;;;;;;9.63;84.99;101984.56;5025774;28;20426;-76
2022/11/12 11:55:01;;;;;;;21.57;15.50;;;;;;;9.66;84.86;101978.75;5013428;28;20871;-76
2022/11/12 11:57:52;;;;;;;16.42;12.93;;;;;;;9.66;84.82;101978.75;5015661;28;20451;-77